Campo Fontenelle

SBYS · São Paulo, 巴西

2024年4月23日 09:002024年4月23日 21:00有效
时间
星期二
09:00
星期二
10:00
星期二
11:00
星期二
12:00
星期二
13:00
星期二
14:00
星期二
15:00
星期二
16:00
星期二
17:00
星期二
18:00
星期二
19:00
星期二
20:00
代码
VFR
VFR
VFR
VFR
VFR
VFR
VFR
VFR
VFR
VFR
VFR
VFR
天气
天空晴朗
天空晴朗
天空晴朗
天空晴朗
天空晴朗
天空晴朗
天空晴朗
天空晴朗
天空晴朗
天空晴朗
天空晴朗
天空晴朗
能见度
10 km+
10 km+
10 km+
10 km+
10 km+
10 km+
10 km+
10 km+
10 km+
10 km+
10 km+
10 km+
天花板
-
-
-
-
-
-
-
-
-
-
-
-
340°
340°
340°
340°
340°
340°
340°
340°
340°
340°
340°
340°
340°
340°
340°
340°
340°
340°
340°
340°
340°
340°
340°
340°
速度
3 kt
3 kt
3 kt
3 kt
3 kt
3 kt
3 kt
3 kt
3 kt
3 kt
3 kt
3 kt
阵风
温度/星期日
31 °C
17:50
13 °C

原版的

TAF SBYS 230900Z 2312/2324 34003KT CAVOK TX31/2318Z TN13/2323Z RMK PBH

TAF Campo Fontenelle

Campo Fontenelle是,巴西中的中型机场。 该机场位于纬度-21,98454和经度-47,34196。 该机场有2条跑道: 2L/20R 和 2R/20L. 本场的ICAO机场代码为SBYS。 该机场的IATA代码为QPS。 机场在Brasilia FIR中。

该航空气象观测是针对Campo Fontenelle在2024年4月23日 06:00, 当地时间进行的。 从2024年4月23日 09:00到2024年4月23日 21:00, 当地时间有效.

预报

  • 在星期二 09:00和21:00之间

    • 风: 风来自340°方向,速度为3 kt。
    • CAVOK: 天气为CAVOK。这意味着在5.000 ft或MSA(最低安全高度)以下(以较高者为准)以下没有云。这也意味着没有观测到积雨云或高耸的积云,可见度为10 km 或者更多或更高。此外,不会有雾,降雨或其他重要天气。
    • 最低温度: 13 °C在2024年4月23日在20:00
    • 最高温度: 31 °C在2024年4月23日在15:00

白天

今天,太阳从06:24升起,在17:50降落。 这适用于Campo Fontenelle,世界夏令时可能有所不同。 当地时间与世界标准时间之间的时差为-3 小时。 夏令时目前正在进行中。

报告变更